createdAt,value
2023-04-19T00:01:36.514Z,102948.91
2023-04-19T00:04:16.379Z,102948.97
2023-04-19T00:06:55.074Z,102942.94
2023-04-19T00:09:21.800Z,102949.91
2023-04-19T00:11:56.120Z,102947.34
2023-04-19T00:14:28.067Z,102947.38
2023-04-19T00:16:55.042Z,102941.31
2023-04-19T00:19:22.533Z,102948.31
2023-04-19T00:21:55.816Z,102944.00
2023-04-19T00:24:24.776Z,102939.72
2023-04-19T00:27:02.935Z,102941.47
2023-04-19T00:29:29.564Z,102934.63
2023-04-19T00:32:00.354Z,102939.84
2023-04-19T00:34:32.681Z,102943.34
2023-04-19T00:37:11.267Z,102943.41
2023-04-19T00:39:52.680Z,102939.13
2023-04-19T00:42:24.019Z,102938.25
2023-04-19T00:44:53.171Z,102928.75
2023-04-19T00:47:25.213Z,102923.59
2023-04-19T00:49:59.662Z,102922.78
2023-04-19T00:52:26.703Z,102924.56
2023-04-19T00:54:54.146Z,102923.75
2023-04-19T00:57:24.684Z,102918.63
2023-04-19T00:59:56.443Z,102921.22
2023-04-19T01:02:23.338Z,102923.84
2023-04-19T01:04:57.617Z,102914.38
2023-04-19T01:07:29.819Z,102912.69
2023-04-19T01:10:02.289Z,102910.94
2023-04-19T01:12:36.850Z,102911.78
2023-04-19T01:15:07.640Z,102916.16
2023-04-19T01:17:40.688Z,102904.88
2023-04-19T01:20:14.976Z,102917.00
2023-04-19T01:22:41.427Z,102913.50
2023-04-19T01:25:08.744Z,102910.00
2023-04-19T01:27:35.243Z,102908.28
2023-04-19T01:30:01.721Z,102912.59
2023-04-19T01:32:28.266Z,102913.44
2023-04-19T01:34:54.720Z,102909.09
2023-04-19T01:37:21.183Z,102904.75
2023-04-19T01:39:47.651Z,102908.19
2023-04-19T01:42:14.160Z,102907.34
2023-04-19T01:44:40.647Z,102898.63
2023-04-19T01:47:07.132Z,102909.84
2023-04-19T01:49:33.551Z,102909.78
2023-04-19T01:52:00.684Z,102915.00
2023-04-19T01:54:27.185Z,102914.94
2023-04-19T01:56:53.647Z,102911.47
2023-04-19T01:59:20.121Z,102914.06
2023-04-19T02:01:46.568Z,102907.97
2023-04-19T02:04:13.126Z,102912.28
2023-04-19T02:06:39.729Z,102909.69
2023-04-19T02:09:06.112Z,102911.38
2023-04-19T02:11:32.560Z,102908.78
2023-04-19T02:13:58.994Z,102911.34
2023-04-19T02:16:25.478Z,102912.19
2023-04-19T02:18:52.134Z,102908.75
2023-04-19T02:21:18.779Z,102911.31
2023-04-19T02:23:45.761Z,102906.09
2023-04-19T02:26:13.077Z,102913.88
2023-04-19T02:28:39.492Z,102908.66
2023-04-19T02:31:06.943Z,102905.19
2023-04-19T02:33:33.365Z,102912.97
2023-04-19T02:35:59.890Z,102906.03
2023-04-19T02:38:26.306Z,102910.34
2023-04-19T02:40:52.713Z,102922.47
2023-04-19T02:43:19.159Z,102925.03
2023-04-19T02:45:45.640Z,102915.50
2023-04-19T02:48:12.130Z,102917.22
2023-04-19T02:50:38.781Z,102914.59
2023-04-19T02:53:05.454Z,102912.00
2023-04-19T02:55:31.859Z,102912.00
2023-04-19T02:57:58.274Z,102917.19
2023-04-19T03:00:24.766Z,102912.84
2023-04-19T03:02:51.287Z,102914.56
2023-04-19T03:05:18.060Z,102911.09
2023-04-19T03:07:44.770Z,102910.22
2023-04-19T03:10:11.308Z,102909.31
2023-04-19T03:12:37.802Z,102911.06
2023-04-19T03:15:04.618Z,102899.81
2023-04-19T03:17:31.078Z,102902.38
2023-04-19T03:19:57.568Z,102906.72
2023-04-19T03:22:24.006Z,102899.78
2023-04-19T03:24:50.510Z,102901.50
2023-04-19T03:27:16.915Z,102898.06
2023-04-19T03:29:43.309Z,102906.72
2023-04-19T03:32:09.718Z,102900.63
2023-04-19T03:34:36.295Z,102909.28
2023-04-19T03:37:02.778Z,102895.41
2023-04-19T03:39:29.202Z,102904.06
2023-04-19T03:41:55.621Z,102893.66
2023-04-19T03:44:22.111Z,102899.72
2023-04-19T03:46:49.037Z,102904.06
2023-04-19T03:49:15.484Z,102896.28
2023-04-19T03:51:41.909Z,102901.50
2023-04-19T03:54:08.316Z,102904.16
2023-04-19T03:56:34.771Z,102895.53
2023-04-19T03:59:01.313Z,102903.44
2023-04-19T04:01:28.199Z,102899.16
2023-04-19T04:03:54.799Z,102894.00
2023-04-19T04:06:21.354Z,102899.25
2023-04-19T04:08:47.791Z,102898.44
2023-04-19T04:11:14.296Z,102896.75
2023-04-19T04:13:40.809Z,102902.81
2023-04-19T04:16:07.355Z,102896.78
2023-04-19T04:18:33.859Z,102898.53
2023-04-19T04:21:00.756Z,102895.97
2023-04-19T04:23:28.334Z,102895.13
2023-04-19T04:26:00.830Z,102906.44
2023-04-19T04:28:28.133Z,102900.41
2023-04-19T04:30:59.001Z,102900.44
2023-04-19T04:33:26.720Z,102908.28
2023-04-19T04:35:56.442Z,102897.91
2023-04-19T04:38:25.088Z,102904.00
2023-04-19T04:40:55.700Z,102898.84
2023-04-19T04:43:23.598Z,102900.59
2023-04-19T04:45:50.583Z,102901.50
2023-04-19T04:48:17.429Z,102897.22
2023-04-19T04:50:44.324Z,102905.03
2023-04-19T04:53:13.151Z,102900.72
2023-04-19T04:55:39.852Z,102900.75
2023-04-19T04:58:06.928Z,102905.94
2023-04-19T05:00:33.472Z,102896.44
2023-04-19T05:03:00.334Z,102905.16
2023-04-19T05:05:26.918Z,102902.56
2023-04-19T05:07:53.378Z,102907.75
2023-04-19T05:10:19.838Z,102910.38
2023-04-19T05:12:46.303Z,102910.38
2023-04-19T05:15:12.765Z,102912.09
2023-04-19T05:17:39.260Z,102906.06
2023-04-19T05:20:06.405Z,102909.50
2023-04-19T05:22:32.849Z,102907.78
2023-04-19T05:24:59.258Z,102906.91
2023-04-19T05:27:25.860Z,102917.31
2023-04-19T05:29:52.546Z,102917.31
2023-04-19T05:32:19.277Z,102916.44
2023-04-19T05:34:45.911Z,102920.75
2023-04-19T05:37:12.339Z,102914.63
2023-04-19T05:39:38.781Z,102919.75
2023-04-19T05:42:05.329Z,102919.22
2023-04-19T05:44:31.804Z,102920.25
2023-04-19T05:46:58.292Z,102924.41
2023-04-19T05:49:24.717Z,102925.41
2023-04-19T05:51:51.278Z,102923.06
2023-04-19T05:54:17.928Z,102923.28
2023-04-19T05:56:44.426Z,102920.81
2023-04-19T05:59:11.599Z,102920.00
2023-04-19T06:01:38.348Z,102921.78
2023-04-19T06:04:05.192Z,102918.31
2023-04-19T06:06:31.853Z,102920.00
2023-04-19T06:08:58.269Z,102927.75
2023-04-19T06:11:34.868Z,102924.25
2023-04-19T06:14:06.229Z,102922.47
2023-04-19T06:16:32.718Z,102922.47
2023-04-19T06:18:59.189Z,102926.75
2023-04-19T06:21:25.628Z,102924.94
2023-04-19T06:23:52.173Z,102923.13
2023-04-19T06:26:18.664Z,102922.09
2023-04-19T06:28:45.138Z,102924.56
2023-04-19T06:31:12.297Z,102916.69
2023-04-19T06:33:38.905Z,102924.38
2023-04-19T06:36:05.971Z,102925.09
2023-04-19T06:38:32.404Z,102927.63
2023-04-19T06:40:58.859Z,102926.66
2023-04-19T06:43:26.034Z,102917.97
2023-04-19T06:46:03.219Z,102913.56
2023-04-19T06:48:29.787Z,102929.97
2023-04-19T06:50:56.523Z,102920.31
2023-04-19T06:53:23.586Z,102927.19
2023-04-19T06:55:56.444Z,102922.81
2023-04-19T06:58:22.900Z,102926.13
2023-04-19T07:00:49.338Z,102927.81
2023-04-19T07:03:16.257Z,102926.97
2023-04-19T07:05:42.732Z,102928.63
2023-04-19T07:08:09.200Z,102930.31
2023-04-19T07:10:35.659Z,102933.72
2023-04-19T07:13:02.129Z,102926.66
2023-04-19T07:15:28.604Z,102915.28
2023-04-19T07:17:55.364Z,102927.41
2023-04-19T07:20:21.948Z,102920.31
2023-04-19T07:22:48.413Z,102927.28
2023-04-19T07:25:15.032Z,102917.72
2023-04-19T07:27:41.499Z,102921.06
2023-04-19T07:30:08.899Z,102920.13
2023-04-19T07:32:35.507Z,102925.19
2023-04-19T07:35:02.228Z,102925.13
2023-04-19T07:37:28.706Z,102923.34
2023-04-19T07:39:55.494Z,102918.09
2023-04-19T07:42:21.937Z,102923.19
2023-04-19T07:44:48.456Z,102926.66
2023-04-19T07:47:14.955Z,102920.47
2023-04-19T07:49:41.554Z,102924.78
2023-04-19T07:52:08.252Z,102928.94
2023-04-19T07:54:35.823Z,102932.34
2023-04-19T07:57:03.196Z,102930.59
2023-04-19T07:59:30.337Z,102931.50
2023-04-19T08:01:56.881Z,102927.06
2023-04-19T08:04:23.957Z,102937.31
2023-04-19T08:06:51.040Z,102935.34
2023-04-19T08:09:17.565Z,102937.97
2023-04-19T08:11:44.254Z,102941.38
2023-04-19T08:14:30.424Z,102937.84
2023-04-19T08:17:22.239Z,102923.84
2023-04-19T08:19:43.566Z,102928.03
2023-04-19T08:22:10.099Z,102932.38
2023-04-19T08:24:36.530Z,102926.09
2023-04-19T08:27:03.015Z,102922.56
2023-04-19T08:29:29.527Z,102923.38
2023-04-19T08:31:56.174Z,102920.50
2023-04-19T08:34:22.655Z,102930.72
2023-04-19T08:36:59.948Z,102920.00
2023-04-19T08:39:33.575Z,102926.78
2023-04-19T08:42:12.556Z,102916.28
2023-04-19T08:45:09.398Z,102919.78
2023-04-19T08:47:48.537Z,102918.09
2023-04-19T08:50:32.497Z,102914.56
2023-04-19T08:53:11.998Z,102925.69
2023-04-19T08:55:59.181Z,102908.13
2023-04-19T08:58:41.306Z,102913.22
2023-04-19T09:01:32.947Z,102916.72
2023-04-19T09:04:17.387Z,102914.97
2023-04-19T09:06:53.337Z,102913.16
2023-04-19T09:09:37.091Z,102913.03
2023-04-19T09:12:17.944Z,102907.63
2023-04-19T09:14:57.767Z,102906.72
2023-04-19T09:17:27.627Z,102910.88
2023-04-19T09:19:54.135Z,102908.09
2023-04-19T09:22:21.486Z,102894.94
2023-04-19T09:27:29.225Z,102897.50
2023-04-19T09:29:57.854Z,102898.19
2023-04-19T09:32:24.850Z,102897.19
2023-04-19T09:34:59.476Z,102892.47
2023-04-19T09:37:51.278Z,102893.88
2023-04-19T09:40:22.380Z,102884.13
2023-04-19T09:48:07.875Z,102892.03
2023-04-19T09:50:46.214Z,102889.44
2023-04-19T09:53:22.149Z,102882.09
2023-04-19T09:56:00.511Z,102892.38
2023-04-19T09:58:34.333Z,102888.13
2023-04-19T10:01:15.871Z,102877.72
2023-04-19T10:03:47.830Z,102890.53
2023-04-19T10:06:40.103Z,102877.59
2023-04-19T10:09:04.711Z,102890.16
2023-04-19T10:11:38.744Z,102881.41
2023-04-19T10:14:07.999Z,102870.66
2023-04-19T10:16:36.312Z,102871.38
2023-04-19T10:19:13.933Z,102874.50
2023-04-19T10:21:43.197Z,102872.84
2023-04-19T10:24:12.661Z,102864.28
2023-04-19T10:27:13.155Z,102865.72
2023-04-19T10:29:51.749Z,102858.59
2023-04-19T10:32:18.314Z,102857.66
2023-04-19T10:34:46.418Z,102854.75
2023-04-19T10:37:16.319Z,102850.00
2023-04-19T10:39:45.743Z,102844.69
2023-04-19T10:42:13.112Z,102850.66
2023-04-19T10:44:39.585Z,102848.94
2023-04-19T10:47:06.070Z,102849.84
2023-04-19T10:49:45.163Z,102851.50
2023-04-19T10:52:29.606Z,102865.06
2023-04-19T10:54:56.942Z,102845.25
2023-04-19T10:57:25.251Z,102838.34
2023-04-19T11:00:20.956Z,102839.69
2023-04-19T11:02:47.697Z,102836.63
2023-04-19T11:05:14.557Z,102826.09
2023-04-19T11:07:41.909Z,102826.91
2023-04-19T11:10:09.219Z,102821.44
2023-04-19T11:12:35.970Z,102825.50
2023-04-19T11:15:03.214Z,102820.03
2023-04-19T11:17:32.093Z,102825.28
2023-04-19T11:20:03.577Z,102817.41
2023-04-19T11:22:34.718Z,102812.78
2023-04-19T11:25:20.772Z,102807.88
2023-04-19T11:27:49.512Z,102797.41
2023-04-19T11:30:22.449Z,102798.00
2023-04-19T11:32:53.893Z,102791.59
2023-04-19T11:35:28.605Z,102790.53
2023-04-19T11:37:56.701Z,102780.88
2023-04-19T11:40:25.944Z,102790.34
2023-04-19T11:43:00.645Z,102777.06
2023-04-19T11:45:34.769Z,102775.16
2023-04-19T11:48:05.186Z,102770.88
2023-04-19T11:50:39.668Z,102763.78
2023-04-19T11:53:17.779Z,102766.16
2023-04-19T11:55:48.661Z,102752.59
2023-04-19T11:58:32.737Z,102747.22
2023-04-19T12:01:07.043Z,102755.09
2023-04-19T12:03:35.486Z,102750.91
2023-04-19T12:06:09.214Z,102753.44
2023-04-19T12:08:44.358Z,102748.81
2023-04-19T12:11:11.052Z,102749.19
2023-04-19T12:13:37.802Z,102750.00
2023-04-19T12:16:04.572Z,102745.81
2023-04-19T12:18:51.197Z,102742.06
2023-04-19T12:21:28.846Z,102751.25
2023-04-19T12:23:56.978Z,102747.75
2023-04-19T12:26:29.903Z,102743.69
2023-04-19T12:28:57.714Z,102735.06
2023-04-19T12:31:25.015Z,102739.88
2023-04-19T12:33:51.760Z,102741.91
2023-04-19T12:36:18.310Z,102730.69
2023-04-19T12:38:44.882Z,102747.63
2023-04-19T12:41:11.371Z,102730.91
2023-04-19T12:43:37.856Z,102730.84
2023-04-19T12:46:05.403Z,102716.53
2023-04-19T12:48:31.893Z,102710.34
2023-04-19T12:50:58.419Z,102716.31
2023-04-19T12:53:25.315Z,102715.78
2023-04-19T12:55:51.835Z,102704.22
2023-04-19T12:58:18.741Z,102706.38
2023-04-19T13:00:45.458Z,102702.41
2023-04-19T13:03:12.706Z,102707.47
2023-04-19T13:05:39.418Z,102701.41
2023-04-19T13:08:06.527Z,102696.22
2023-04-19T13:10:33.027Z,102697.09
2023-04-19T13:13:00.736Z,102688.28
2023-04-19T13:15:28.596Z,102674.22
2023-04-19T13:17:55.682Z,102670.72
2023-04-19T13:20:22.235Z,102666.13
2023-04-19T13:22:48.732Z,102659.81
2023-04-19T13:25:15.379Z,102658.94
2023-04-19T13:27:41.873Z,102658.84
2023-04-19T13:30:08.835Z,102651.06
2023-04-19T13:32:35.487Z,102644.97
2023-04-19T13:35:02.138Z,102645.72
2023-04-19T13:37:28.774Z,102653.75
2023-04-19T13:40:03.954Z,102641.56
2023-04-19T13:42:37.561Z,102644.03
2023-04-19T13:45:04.661Z,102633.03
2023-04-19T13:47:31.245Z,102631.75
2023-04-19T13:49:57.698Z,102621.31
2023-04-19T13:52:24.149Z,102623.72
2023-04-19T13:54:50.829Z,102616.00
2023-04-19T13:57:18.065Z,102618.06
2023-04-19T13:59:44.495Z,102604.59
2023-04-19T14:02:11.128Z,102622.94
2023-04-19T14:04:37.899Z,102609.00
2023-04-19T14:07:04.420Z,102610.41
2023-04-19T14:09:32.068Z,102597.22
2023-04-19T14:11:58.635Z,102586.59
2023-04-19T14:14:25.130Z,102604.50
2023-04-19T14:16:51.629Z,102583.69
2023-04-19T14:19:18.208Z,102583.81
2023-04-19T14:21:44.695Z,102581.50
2023-04-19T14:24:11.142Z,102570.84
2023-04-19T14:26:37.663Z,102573.00
2023-04-19T14:29:04.154Z,102562.50
2023-04-19T14:31:31.393Z,102557.09
2023-04-19T14:33:59.660Z,102556.94
2023-04-19T14:36:26.878Z,102544.16
2023-04-19T14:38:53.329Z,102551.38
2023-04-19T14:41:19.758Z,102552.06
2023-04-19T14:43:46.356Z,102551.91
2023-04-19T14:46:12.813Z,102546.72
2023-04-19T14:48:39.263Z,102542.38
2023-04-19T14:51:05.736Z,102541.38
2023-04-19T14:53:35.968Z,102547.25
2023-04-19T14:56:06.092Z,102545.63
2023-04-19T14:58:32.603Z,102536.03
2023-04-19T15:00:59.359Z,102529.34
2023-04-19T15:03:26.090Z,102522.66
2023-04-19T15:05:52.902Z,102533.31
2023-04-19T15:08:30.180Z,102530.94
2023-04-19T15:10:57.816Z,102521.06
2023-04-19T15:13:24.381Z,102520.19
2023-04-19T15:15:51.529Z,102520.28
2023-04-19T15:18:18.026Z,102516.16
2023-04-19T15:20:44.460Z,102512.53
2023-04-19T15:23:10.898Z,102512.47
2023-04-19T15:25:37.493Z,102516.50
2023-04-19T15:28:04.278Z,102513.38
2023-04-19T15:30:30.831Z,102505.31
2023-04-19T15:32:57.484Z,102514.31
2023-04-19T15:35:23.901Z,102499.63
2023-04-19T15:37:50.347Z,102505.56
2023-04-19T15:40:17.286Z,102501.78
2023-04-19T15:42:43.928Z,102502.63
2023-04-19T15:45:10.790Z,102504.41
2023-04-19T15:47:37.337Z,102504.72
2023-04-19T15:50:04.648Z,102506.56
2023-04-19T15:52:31.420Z,102493.44
2023-04-19T15:54:57.828Z,102497.00
2023-04-19T15:57:24.313Z,102497.06
2023-04-19T15:59:50.779Z,102498.16
2023-04-19T16:02:17.444Z,102506.03
2023-04-19T16:04:49.023Z,102490.78
2023-04-19T16:07:15.728Z,102496.53
2023-04-19T16:09:42.296Z,102497.59
2023-04-19T16:12:08.833Z,102494.13
2023-04-19T16:14:35.639Z,102482.63
2023-04-19T16:17:02.069Z,102500.00
2023-04-19T16:19:28.536Z,102492.53
2023-04-19T16:21:55.017Z,102489.91
2023-04-19T16:24:21.460Z,102490.84
2023-04-19T16:26:48.061Z,102478.94
2023-04-19T16:29:14.845Z,102491.44
2023-04-19T16:31:41.538Z,102485.47
2023-04-19T16:34:08.065Z,102486.28
2023-04-19T16:36:34.509Z,102488.75
2023-04-19T16:39:01.577Z,102484.25
2023-04-19T16:41:28.111Z,102481.63
2023-04-19T16:43:56.206Z,102486.19
2023-04-19T16:46:23.052Z,102478.38
2023-04-19T16:48:49.547Z,102480.19
2023-04-19T16:51:16.038Z,102477.66
2023-04-19T16:53:43.651Z,102479.88
2023-04-19T16:56:10.162Z,102480.19
2023-04-19T16:58:36.677Z,102470.78
2023-04-19T17:01:03.577Z,102473.69
2023-04-19T17:03:33.114Z,102476.59
2023-04-19T17:05:59.694Z,102479.63
2023-04-19T17:08:26.593Z,102473.16
2023-04-19T17:10:53.094Z,102472.75
2023-04-19T17:13:20.136Z,102476.38
2023-04-19T17:15:46.732Z,102472.28
2023-04-19T17:18:13.310Z,102471.63
2023-04-19T17:20:39.943Z,102481.41
2023-04-19T17:23:06.705Z,102474.59
2023-04-19T17:25:33.154Z,102474.84
2023-04-19T17:27:59.585Z,102475.16
2023-04-19T17:30:26.249Z,102471.13
2023-04-19T17:32:52.957Z,102466.25
2023-04-19T17:35:19.580Z,102473.44
2023-04-19T17:37:46.164Z,102468.78
2023-04-19T17:40:12.747Z,102471.63
2023-04-19T17:42:39.156Z,102469.34
2023-04-19T17:45:10.880Z,102474.06
2023-04-19T17:47:41.037Z,102465.69
2023-04-19T17:50:13.428Z,102473.81
2023-04-19T17:52:40.001Z,102469.75
2023-04-19T17:55:07.213Z,102467.53
2023-04-19T17:57:34.240Z,102468.69
2023-04-19T18:00:01.389Z,102468.13
2023-04-19T18:02:30.447Z,102463.13
2023-04-19T18:04:57.026Z,102469.50
2023-04-19T18:07:23.578Z,102472.34
2023-04-19T18:09:50.102Z,102472.59
2023-04-19T18:12:16.574Z,102458.78
2023-04-19T18:14:43.074Z,102471.19
2023-04-19T18:17:09.480Z,102471.38
2023-04-19T18:19:37.286Z,102469.00
2023-04-19T18:22:03.730Z,102476.94
2023-04-19T18:24:32.509Z,102473.59
2023-04-19T18:26:59.815Z,102474.75
2023-04-19T18:29:26.329Z,102491.50
2023-04-19T18:31:53.099Z,102494.44
2023-04-19T18:34:19.921Z,102492.88
2023-04-19T18:36:48.798Z,102491.31
2023-04-19T18:39:15.525Z,102501.06
2023-04-19T18:41:42.205Z,102497.81
2023-04-19T18:46:38.005Z,102506.03
2023-04-19T18:49:06.815Z,102510.63
2023-04-19T18:51:33.272Z,102507.38
2023-04-19T18:53:59.692Z,102507.53
2023-04-19T18:57:03.791Z,102512.91
2023-04-19T18:59:15.137Z,102513.19
2023-04-19T19:01:41.852Z,102518.69
2023-04-19T19:04:28.342Z,102523.94
2023-04-19T19:06:57.623Z,102526.88
2023-04-19T19:09:28.735Z,102520.16
2023-04-19T19:11:56.945Z,102523.06
2023-04-19T19:14:23.638Z,102523.22
2023-04-19T19:16:52.340Z,102530.34
2023-04-19T19:19:22.565Z,102535.72
2023-04-19T19:21:49.450Z,102544.59
2023-04-19T19:24:16.072Z,102540.41
2023-04-19T19:26:42.562Z,102538.78
2023-04-19T19:29:10.871Z,102542.44
2023-04-19T19:31:37.342Z,102547.88
2023-04-19T19:34:22.636Z,102559.28
2023-04-19T19:36:50.635Z,102563.78
2023-04-19T19:39:17.446Z,102554.34
2023-04-19T19:44:15.120Z,102575.47
2023-04-19T19:46:41.529Z,102578.31
2023-04-19T19:49:12.583Z,102567.16
2023-04-19T19:51:56.658Z,102572.53
2023-04-19T19:54:25.299Z,102580.38
2023-04-19T19:59:22.729Z,102578.81
2023-04-19T20:01:55.656Z,102583.38
2023-04-19T20:04:22.970Z,102588.69
2023-04-19T20:09:19.136Z,102594.09
2023-04-19T20:11:45.775Z,102592.47
2023-04-19T20:14:12.182Z,102591.63
2023-04-19T20:16:38.711Z,102594.31
2023-04-19T20:19:09.626Z,102598.75
2023-04-19T20:21:37.874Z,102600.59
2023-04-19T20:24:08.956Z,102594.72
2023-04-19T20:26:35.783Z,102596.53
2023-04-19T20:29:02.231Z,102600.94
2023-04-19T20:31:29.265Z,102609.78
2023-04-19T20:33:56.264Z,102610.75
2023-04-19T20:36:23.355Z,102612.59
2023-04-19T20:38:50.867Z,102606.59
2023-04-19T20:41:18.463Z,102617.16
2023-04-19T20:43:44.954Z,102601.69
2023-04-19T20:46:11.525Z,102604.38
2023-04-19T20:48:38.060Z,102611.41
2023-04-19T20:51:04.614Z,102608.94
2023-04-19T20:53:31.242Z,102612.47
2023-04-19T20:55:57.663Z,102615.22
2023-04-19T20:58:24.095Z,102610.94
2023-04-19T21:00:50.695Z,102622.28
2023-04-19T21:03:17.304Z,102611.94
2023-04-19T21:05:44.562Z,102613.78
2023-04-19T21:08:11.051Z,102610.38
2023-04-19T21:10:37.453Z,102617.38
2023-04-19T21:13:03.908Z,102614.88
2023-04-19T21:15:30.312Z,102607.22
2023-04-19T21:17:56.768Z,102609.88
2023-04-19T21:20:23.303Z,102619.53
2023-04-19T21:22:49.750Z,102611.78
2023-04-19T21:25:16.359Z,102611.88
2023-04-19T21:27:42.895Z,102615.38
2023-04-19T21:30:10.321Z,102616.34
2023-04-19T21:32:36.877Z,102611.19
2023-04-19T21:35:03.942Z,102622.59
2023-04-19T21:37:30.629Z,102619.16
2023-04-19T21:39:57.773Z,102606.19
2023-04-19T21:42:24.346Z,102619.34
2023-04-19T21:44:50.794Z,102611.72
2023-04-19T21:47:17.892Z,102607.44
2023-04-19T21:49:44.411Z,102611.00
2023-04-19T21:52:10.952Z,102610.25
2023-04-19T21:54:37.343Z,102603.38
2023-04-19T21:57:04.150Z,102605.19
2023-04-19T21:59:31.088Z,102611.28
2023-04-19T22:01:58.684Z,102608.81
2023-04-19T22:04:25.299Z,102601.06
2023-04-19T22:06:51.743Z,102602.03
2023-04-19T22:09:18.218Z,102610.75
2023-04-19T22:11:45.721Z,102605.59
2023-04-19T22:14:12.789Z,102607.41
2023-04-19T22:16:39.234Z,102604.00
2023-04-19T22:19:05.673Z,102607.56
2023-04-19T22:21:32.786Z,102607.63
2023-04-19T22:23:59.373Z,102615.44
2023-04-19T22:26:26.730Z,102619.84
2023-04-19T22:28:53.867Z,102609.50
2023-04-19T22:31:20.436Z,102616.50
2023-04-19T22:33:46.918Z,102608.78
2023-04-19T22:36:13.417Z,102614.88
2023-04-19T22:38:39.890Z,102610.63
2023-04-19T22:41:06.317Z,102608.13
2023-04-19T22:43:33.161Z,102611.63
2023-04-19T22:45:59.758Z,102610.78
2023-04-19T22:48:28.020Z,102608.28
2023-04-19T22:50:54.483Z,102611.84
2023-04-19T22:53:20.927Z,102610.16
2023-04-19T22:55:47.460Z,102606.75
2023-04-19T22:58:13.901Z,102608.50
2023-04-19T23:00:40.546Z,102611.19
2023-04-19T23:03:07.082Z,102609.47
2023-04-19T23:05:33.676Z,102604.31
2023-04-19T23:08:00.232Z,102611.25
2023-04-19T23:10:27.886Z,102606.16
2023-04-19T23:12:54.909Z,102604.47
2023-04-19T23:15:21.886Z,102601.91
2023-04-19T23:17:48.411Z,102601.00
2023-04-19T23:20:15.213Z,102597.56
2023-04-19T23:22:41.822Z,102598.47
2023-04-19T23:25:09.151Z,102598.53
2023-04-19T23:27:36.161Z,102596.81
2023-04-19T23:30:04.215Z,102591.69
2023-04-19T23:32:30.928Z,102585.69
2023-04-19T23:34:57.553Z,102583.13
2023-04-19T23:37:24.018Z,102578.84
2023-04-19T23:39:50.415Z,102579.84
2023-04-19T23:42:18.161Z,102576.47
2023-04-19T23:44:44.551Z,102570.50
2023-04-19T23:47:11.383Z,102574.91
2023-04-19T23:49:37.909Z,102573.28
2023-04-19T23:52:04.485Z,102560.34
2023-04-19T23:54:30.994Z,102556.94
2023-04-19T23:56:58.790Z,102562.16
2023-04-19T23:59:28.462Z,102569.19
